sensor_id;sensor_type;location;lat;lon;timestamp;pressure;altitude;pressure_sealevel;temperature;humidity
19797;BME280;10058;57.654;12.044;2023-09-19T00:00:36;99534.03;;;19.61;100.00
19797;BME280;10058;57.654;12.044;2023-09-19T00:03:02;99543.97;;;19.57;100.00
19797;BME280;10058;57.654;12.044;2023-09-19T00:05:28;99536.63;;;19.64;100.00
19797;BME280;10058;57.654;12.044;2023-09-19T00:07:55;99531.34;;;19.61;100.00
19797;BME280;10058;57.654;12.044;2023-09-19T00:10:25;99517.88;;;19.64;100.00
19797;BME280;10058;57.654;12.044;2023-09-19T00:12:52;99507.44;;;19.55;100.00
19797;BME280;10058;57.654;12.044;2023-09-19T00:15:21;99494.97;;;19.54;100.00
19797;BME280;10058;57.654;12.044;2023-09-19T00:17:47;99508.41;;;19.52;100.00
19797;BME280;10058;57.654;12.044;2023-09-19T00:20:13;99506.34;;;19.60;100.00
19797;BME280;10058;57.654;12.044;2023-09-19T00:22:41;99496.72;;;19.55;100.00
19797;BME280;10058;57.654;12.044;2023-09-19T00:25:08;99510.28;;;19.47;100.00
19797;BME280;10058;57.654;12.044;2023-09-19T00:27:34;99524.53;;;19.49;100.00
19797;BME280;10058;57.654;12.044;2023-09-19T00:30:00;99535.41;;;19.43;100.00
19797;BME280;10058;57.654;12.044;2023-09-19T00:32:25;99500.72;;;19.38;100.00
19797;BME280;10058;57.654;12.044;2023-09-19T00:34:56;99531.19;;;19.34;100.00
19797;BME280;10058;57.654;12.044;2023-09-19T00:37:22;99521.31;;;19.36;100.00
19797;BME280;10058;57.654;12.044;2023-09-19T00:39:47;99524.69;;;19.43;100.00
19797;BME280;10058;57.654;12.044;2023-09-19T00:42:20;99514.84;;;19.43;100.00
19797;BME280;10058;57.654;12.044;2023-09-19T00:44:46;99513.09;;;19.42;100.00
19797;BME280;10058;57.654;12.044;2023-09-19T00:47:11;99502.28;;;19.45;100.00
19797;BME280;10058;57.654;12.044;2023-09-19T00:49:41;99484.66;;;19.38;100.00
19797;BME280;10058;57.654;12.044;2023-09-19T00:52:07;99482.69;;;19.43;100.00
19797;BME280;10058;57.654;12.044;2023-09-19T00:54:35;99477.50;;;19.39;100.00
19797;BME280;10058;57.654;12.044;2023-09-19T00:57:01;99477.41;;;19.40;100.00
19797;BME280;10058;57.654;12.044;2023-09-19T00:59:27;99470.31;;;19.39;100.00
19797;BME280;10058;57.654;12.044;2023-09-19T01:01:54;99450.81;;;19.34;100.00
19797;BME280;10058;57.654;12.044;2023-09-19T01:04:19;99450.06;;;19.29;100.00
19797;BME280;10058;57.654;12.044;2023-09-19T01:06:45;99453.78;;;19.24;100.00
19797;BME280;10058;57.654;12.044;2023-09-19T01:09:11;99447.41;;;19.29;100.00
19797;BME280;10058;57.654;12.044;2023-09-19T01:11:43;99429.94;;;19.16;100.00
19797;BME280;10058;57.654;12.044;2023-09-19T01:14:32;99445.72;;;19.25;100.00
19797;BME280;10058;57.654;12.044;2023-09-19T01:22:51;99428.91;;;19.20;100.00
19797;BME280;10058;57.654;12.044;2023-09-19T01:28:20;99421.47;;;19.30;100.00
19797;BME280;10058;57.654;12.044;2023-09-19T01:30:47;99417.00;;;19.30;100.00
19797;BME280;10058;57.654;12.044;2023-09-19T01:33:15;99409.72;;;19.35;100.00
19797;BME280;10058;57.654;12.044;2023-09-19T01:35:40;99409.81;;;19.32;100.00
19797;BME280;10058;57.654;12.044;2023-09-19T01:38:06;99415.31;;;19.26;100.00
19797;BME280;10058;57.654;12.044;2023-09-19T01:40:41;99401.09;;;19.24;100.00
19797;BME280;10058;57.654;12.044;2023-09-19T01:43:20;99401.00;;;19.27;100.00
19797;BME280;10058;57.654;12.044;2023-09-19T01:54:18;99394.09;;;19.20;100.00
19797;BME280;10058;57.654;12.044;2023-09-19T01:57:01;99371.16;;;19.10;100.00
19797;BME280;10058;57.654;12.044;2023-09-19T01:59:34;99366.00;;;19.04;100.00
19797;BME280;10058;57.654;12.044;2023-09-19T02:02:00;99400.94;;;19.30;100.00
19797;BME280;10058;57.654;12.044;2023-09-19T02:04:27;99417.16;;;19.24;100.00
19797;BME280;10058;57.654;12.044;2023-09-19T02:06:53;99418.00;;;19.26;100.00
19797;BME280;10058;57.654;12.044;2023-09-19T02:09:18;99408.97;;;19.30;100.00
19797;BME280;10058;57.654;12.044;2023-09-19T02:11:43;99398.28;;;19.29;100.00
19797;BME280;10058;57.654;12.044;2023-09-19T02:14:09;99384.78;;;19.33;100.00
19797;BME280;10058;57.654;12.044;2023-09-19T02:16:35;99371.28;;;19.36;100.00
19797;BME280;10058;57.654;12.044;2023-09-19T02:19:00;99355.38;;;19.30;100.00
19797;BME280;10058;57.654;12.044;2023-09-19T02:21:30;99350.88;;;19.32;100.00
19797;BME280;10058;57.654;12.044;2023-09-19T02:23:56;99349.00;;;19.34;100.00
19797;BME280;10058;57.654;12.044;2023-09-19T02:26:21;99352.63;;;19.33;100.00
19797;BME280;10058;57.654;12.044;2023-09-19T02:28:50;99354.47;;;19.31;100.00
19797;BME280;10058;57.654;12.044;2023-09-19T02:31:15;99350.94;;;19.29;100.00
19797;BME280;10058;57.654;12.044;2023-09-19T02:33:41;99351.75;;;19.33;100.00
19797;BME280;10058;57.654;12.044;2023-09-19T02:36:07;99360.00;;;19.25;100.00
19797;BME280;10058;57.654;12.044;2023-09-19T02:38:33;99351.78;;;19.31;100.00
19797;BME280;10058;57.654;12.044;2023-09-19T02:40:59;99343.66;;;19.34;100.00
19797;BME280;10058;57.654;12.044;2023-09-19T02:43:24;99329.34;;;19.35;100.00
19797;BME280;10058;57.654;12.044;2023-09-19T02:45:50;99315.03;;;19.36;100.00
19797;BME280;10058;57.654;12.044;2023-09-19T02:48:16;99310.75;;;19.29;100.00
19797;BME280;10058;57.654;12.044;2023-09-19T02:50:42;99303.59;;;19.30;100.00
19797;BME280;10058;57.654;12.044;2023-09-19T02:53:07;99285.47;;;19.10;100.00
19797;BME280;10058;57.654;12.044;2023-09-19T02:55:32;99300.13;;;19.26;100.00
19797;BME280;10058;57.654;12.044;2023-09-19T02:57:59;99298.94;;;19.36;100.00
19797;BME280;10058;57.654;12.044;2023-09-19T03:00:25;99278.47;;;19.34;100.00
19797;BME280;10058;57.654;12.044;2023-09-19T03:02:55;99273.09;;;19.06;100.00
19797;BME280;10058;57.654;12.044;2023-09-19T03:05:22;99273.75;;;19.14;100.00
19797;BME280;10058;57.654;12.044;2023-09-19T03:07:48;99271.16;;;19.11;100.00
19797;BME280;10058;57.654;12.044;2023-09-19T03:10:16;99259.09;;;19.26;100.00
19797;BME280;10058;57.654;12.044;2023-09-19T03:12:41;99249.34;;;18.95;100.00
19797;BME280;10058;57.654;12.044;2023-09-19T03:15:07;99234.16;;;18.96;100.00
19797;BME280;10058;57.654;12.044;2023-09-19T03:17:34;99246.97;;;19.14;100.00
19797;BME280;10058;57.654;12.044;2023-09-19T03:19:59;99221.09;;;19.13;100.00
19797;BME280;10058;57.654;12.044;2023-09-19T03:22:24;99230.53;;;19.25;100.00
19797;BME280;10058;57.654;12.044;2023-09-19T03:24:51;99216.81;;;19.07;100.00
19797;BME280;10058;57.654;12.044;2023-09-19T03:27:16;99211.97;;;19.20;100.00
19797;BME280;10058;57.654;12.044;2023-09-19T03:29:42;99203.28;;;19.12;100.00
19797;BME280;10058;57.654;12.044;2023-09-19T03:32:07;99199.88;;;19.07;100.00
19797;BME280;10058;57.654;12.044;2023-09-19T03:34:36;99200.00;;;19.04;100.00
19797;BME280;10058;57.654;12.044;2023-09-19T03:37:02;99193.44;;;19.12;100.00
19797;BME280;10058;57.654;12.044;2023-09-19T03:39:28;99197.31;;;19.04;100.00
19797;BME280;10058;57.654;12.044;2023-09-19T03:41:54;99182.41;;;18.95;100.00
19797;BME280;10058;57.654;12.044;2023-09-19T03:44:19;99195.69;;;18.98;100.00
19797;BME280;10058;57.654;12.044;2023-09-19T03:46:44;99200.56;;;18.86;100.00
19797;BME280;10058;57.654;12.044;2023-09-19T03:49:09;99191.03;;;18.75;100.00
19797;BME280;10058;57.654;12.044;2023-09-19T03:51:35;99179.34;;;18.80;100.00
19797;BME280;10058;57.654;12.044;2023-09-19T03:54:00;99169.78;;;18.71;100.00
19797;BME280;10058;57.654;12.044;2023-09-19T03:56:26;99183.41;;;18.63;100.00
19797;BME280;10058;57.654;12.044;2023-09-19T03:58:51;99165.69;;;18.59;100.00
19797;BME280;10058;57.654;12.044;2023-09-19T04:01:16;99173.56;;;18.64;100.00
19797;BME280;10058;57.654;12.044;2023-09-19T04:03:43;99165.69;;;18.59;100.00
19797;BME280;10058;57.654;12.044;2023-09-19T04:06:16;99159.69;;;18.51;100.00
19797;BME280;10058;57.654;12.044;2023-09-19T04:08:42;99156.94;;;18.53;100.00
19797;BME280;10058;57.654;12.044;2023-09-19T04:11:07;99161.44;;;18.52;100.00
19797;BME280;10058;57.654;12.044;2023-09-19T04:13:33;99157.56;;;18.62;100.00
19797;BME280;10058;57.654;12.044;2023-09-19T04:15:58;99156.34;;;18.72;100.00
19797;BME280;10058;57.654;12.044;2023-09-19T04:18:23;99158.53;;;18.58;100.00
19797;BME280;10058;57.654;12.044;2023-09-19T04:20:49;99141.03;;;18.48;100.00
19797;BME280;10058;57.654;12.044;2023-09-19T04:23:15;99159.09;;;18.40;100.00
19797;BME280;10058;57.654;12.044;2023-09-19T04:25:41;99152.28;;;18.30;100.00
19797;BME280;10058;57.654;12.044;2023-09-19T04:28:06;99157.59;;;18.31;100.00
19797;BME280;10058;57.654;12.044;2023-09-19T04:30:31;99159.31;;;18.34;100.00
19797;BME280;10058;57.654;12.044;2023-09-19T04:32:57;99167.97;;;18.42;100.00
19797;BME280;10058;57.654;12.044;2023-09-19T04:35:22;99164.84;;;18.26;100.00
19797;BME280;10058;57.654;12.044;2023-09-19T04:37:47;99168.56;;;18.21;100.00
19797;BME280;10058;57.654;12.044;2023-09-19T04:40:13;99177.41;;;18.24;100.00
19797;BME280;10058;57.654;12.044;2023-09-19T04:42:43;99186.56;;;18.16;100.00
19797;BME280;10058;57.654;12.044;2023-09-19T04:45:09;99188.34;;;18.17;100.00
19797;BME280;10058;57.654;12.044;2023-09-19T04:47:36;99176.63;;;17.88;100.00
19797;BME280;10058;57.654;12.044;2023-09-19T04:50:03;99182.78;;;17.92;100.00
19797;BME280;10058;57.654;12.044;2023-09-19T04:52:30;99176.97;;;17.76;100.00
19797;BME280;10058;57.654;12.044;2023-09-19T04:54:56;99169.41;;;17.58;100.00
19797;BME280;10058;57.654;12.044;2023-09-19T04:57:21;99176.72;;;17.50;100.00
19797;BME280;10058;57.654;12.044;2023-09-19T04:59:46;99170.41;;;17.54;100.00
19797;BME280;10058;57.654;12.044;2023-09-19T05:02:12;99154.94;;;17.32;100.00
19797;BME280;10058;57.654;12.044;2023-09-19T05:04:37;99161.94;;;17.36;100.00
19797;BME280;10058;57.654;12.044;2023-09-19T05:07:03;99170.59;;;17.48;100.00
19797;BME280;10058;57.654;12.044;2023-09-19T05:09:29;99121.53;;;17.16;100.00
19797;BME280;10058;57.654;12.044;2023-09-19T05:11:54;99160.25;;;17.32;100.00
19797;BME280;10058;57.654;12.044;2023-09-19T05:14:19;99151.59;;;17.24;100.00
19797;BME280;10058;57.654;12.044;2023-09-19T05:16:46;99158.91;;;17.16;100.00
19797;BME280;10058;57.654;12.044;2023-09-19T05:19:11;99144.88;;;17.08;100.00
19797;BME280;10058;57.654;12.044;2023-09-19T05:21:37;99148.53;;;17.04;100.00
19797;BME280;10058;57.654;12.044;2023-09-19T05:24:05;99130.75;;;17.03;100.00
19797;BME280;10058;57.654;12.044;2023-09-19T05:26:32;99145.03;;;17.02;100.00
19797;BME280;10058;57.654;12.044;2023-09-19T05:28:57;99142.19;;;17.10;100.00
19797;BME280;10058;57.654;12.044;2023-09-19T05:31:22;99131.97;;;17.25;100.00
19797;BME280;10058;57.654;12.044;2023-09-19T05:33:49;99130.44;;;17.15;100.00
19797;BME280;10058;57.654;12.044;2023-09-19T05:36:15;99135.75;;;17.17;100.00
19797;BME280;10058;57.654;12.044;2023-09-19T05:38:41;99155.50;;;17.11;100.00
19797;BME280;10058;57.654;12.044;2023-09-19T05:41:08;99155.31;;;17.17;100.00
19797;BME280;10058;57.654;12.044;2023-09-19T05:43:34;99139.31;;;17.17;100.00
19797;BME280;10058;57.654;12.044;2023-09-19T05:46:02;99159.28;;;17.01;100.00
19797;BME280;10058;57.654;12.044;2023-09-19T05:48:28;99158.47;;;16.97;100.00
19797;BME280;10058;57.654;12.044;2023-09-19T05:50:53;99168.44;;;16.91;100.00
19797;BME280;10058;57.654;12.044;2023-09-19T05:53:18;99159.50;;;16.92;100.00
19797;BME280;10058;57.654;12.044;2023-09-19T05:55:43;99162.19;;;16.92;100.00
19797;BME280;10058;57.654;12.044;2023-09-19T05:58:09;99143.78;;;16.80;100.00
19797;BME280;10058;57.654;12.044;2023-09-19T06:00:35;99153.75;;;16.72;100.00
19797;BME280;10058;57.654;12.044;2023-09-19T06:03:01;99168.41;;;16.92;100.00
19797;BME280;10058;57.654;12.044;2023-09-19T06:05:27;99164.63;;;17.01;100.00
19797;BME280;10058;57.654;12.044;2023-09-19T06:07:53;99180.06;;;16.88;100.00
19797;BME280;10058;57.654;12.044;2023-09-19T06:10:18;99174.13;;;16.76;100.00
19797;BME280;10058;57.654;12.044;2023-09-19T06:12:46;99172.22;;;16.81;100.00
19797;BME280;10058;57.654;12.044;2023-09-19T06:15:12;99174.88;;;16.81;100.00
19797;BME280;10058;57.654;12.044;2023-09-19T06:17:46;99184.63;;;16.82;100.00
19797;BME280;10058;57.654;12.044;2023-09-19T06:20:12;99179.41;;;16.79;100.00
19797;BME280;10058;57.654;12.044;2023-09-19T06:22:45;99174.19;;;16.73;100.00
19797;BME280;10058;57.654;12.044;2023-09-19T06:25:12;99175.09;;;16.72;100.00
19797;BME280;10058;57.654;12.044;2023-09-19T06:27:41;99174.78;;;16.85;100.00
19797;BME280;10058;57.654;12.044;2023-09-19T06:30:08;99162.66;;;16.72;100.00
19797;BME280;10058;57.654;12.044;2023-09-19T06:32:35;99174.06;;;16.79;100.00
19797;BME280;10058;57.654;12.044;2023-09-19T06:35:01;99173.97;;;16.82;100.00
19797;BME280;10058;57.654;12.044;2023-09-19T06:37:28;99180.94;;;16.89;100.00
19797;BME280;10058;57.654;12.044;2023-09-19T06:39:53;99158.63;;;16.91;100.00
19797;BME280;10058;57.654;12.044;2023-09-19T06:42:18;99157.06;;;16.81;100.00
19797;BME280;10058;57.654;12.044;2023-09-19T06:44:44;99154.81;;;17.01;100.00
19797;BME280;10058;57.654;12.044;2023-09-19T06:47:09;99149.72;;;16.92;100.00
19797;BME280;10058;57.654;12.044;2023-09-19T06:49:35;99162.84;;;17.00;100.00
19797;BME280;10058;57.654;12.044;2023-09-19T06:52:01;99154.09;;;16.95;100.00
19797;BME280;10058;57.654;12.044;2023-09-19T06:54:27;99136.31;;;17.31;100.00
19797;BME280;10058;57.654;12.044;2023-09-19T06:56:56;99136.56;;;17.20;100.00
19797;BME280;10058;57.654;12.044;2023-09-19T06:59:23;99126.56;;;17.28;100.00
19797;BME280;10058;57.654;12.044;2023-09-19T07:01:48;99117.94;;;17.17;100.00
19797;BME280;10058;57.654;12.044;2023-09-19T07:04:14;99130.81;;;17.35;100.00
19797;BME280;10058;57.654;12.044;2023-09-19T07:06:39;99126.50;;;17.31;100.00
19797;BME280;10058;57.654;12.044;2023-09-19T07:09:05;99123.88;;;17.64;100.00
19797;BME280;10058;57.654;12.044;2023-09-19T07:11:31;99134.16;;;17.79;100.00
19797;BME280;10058;57.654;12.044;2023-09-19T07:13:57;99136.25;;;17.99;100.00
19797;BME280;10058;57.654;12.044;2023-09-19T07:16:23;99140.41;;;17.78;100.00
19797;BME280;10058;57.654;12.044;2023-09-19T07:18:54;99135.09;;;17.77;100.00
19797;BME280;10058;57.654;12.044;2023-09-19T07:21:20;99115.91;;;17.61;100.00
19797;BME280;10058;57.654;12.044;2023-09-19T07:23:46;99124.66;;;17.67;100.00
19797;BME280;10058;57.654;12.044;2023-09-19T07:26:11;99147.03;;;17.29;100.00
19797;BME280;10058;57.654;12.044;2023-09-19T07:28:37;99148.16;;;17.19;100.00
19797;BME280;10058;57.654;12.044;2023-09-19T07:31:02;99142.88;;;17.50;100.00
19797;BME280;10058;57.654;12.044;2023-09-19T07:33:32;99129.78;;;17.41;100.00
19797;BME280;10058;57.654;12.044;2023-09-19T07:35:57;99107.38;;;17.14;100.00
19797;BME280;10058;57.654;12.044;2023-09-19T07:38:22;99125.34;;;17.06;100.00
19797;BME280;10058;57.654;12.044;2023-09-19T07:40:48;99139.97;;;17.27;100.00
19797;BME280;10058;57.654;12.044;2023-09-19T07:43:13;99135.78;;;17.15;100.00
19797;BME280;10058;57.654;12.044;2023-09-19T07:45:39;99150.44;;;16.99;100.00
19797;BME280;10058;57.654;12.044;2023-09-19T07:48:05;99126.16;;;16.73;100.00
19797;BME280;10058;57.654;12.044;2023-09-19T07:50:33;99156.00;;;16.90;100.00
19797;BME280;10058;57.654;12.044;2023-09-19T07:52:59;99140.84;;;16.92;100.00
19797;BME280;10058;57.654;12.044;2023-09-19T07:55:24;99109.44;;;16.64;100.00
19797;BME280;10058;57.654;12.044;2023-09-19T07:57:52;99157.38;;;17.06;100.00
19797;BME280;10058;57.654;12.044;2023-09-19T08:00:17;99135.56;;;17.24;100.00
19797;BME280;10058;57.654;12.044;2023-09-19T08:02:43;99134.97;;;17.13;100.00
19797;BME280;10058;57.654;12.044;2023-09-19T08:05:10;99135.66;;;17.21;100.00
19797;BME280;10058;57.654;12.044;2023-09-19T08:07:40;99137.53;;;17.16;100.00
19797;BME280;10058;57.654;12.044;2023-09-19T08:10:07;99145.78;;;17.07;100.00
19797;BME280;10058;57.654;12.044;2023-09-19T08:12:40;99145.88;;;16.65;100.00
19797;BME280;10058;57.654;12.044;2023-09-19T08:15:15;99133.53;;;16.61;100.00
19797;BME280;10058;57.654;12.044;2023-09-19T08:17:41;99134.09;;;16.76;100.00
19797;BME280;10058;57.654;12.044;2023-09-19T08:20:07;99131.69;;;16.63;100.00
19797;BME280;10058;57.654;12.044;2023-09-19T08:22:33;99099.22;;;16.83;100.00
19797;BME280;10058;57.654;12.044;2023-09-19T08:24:58;99095.75;;;17.15;100.00
19797;BME280;10058;57.654;12.044;2023-09-19T08:27:24;99111.47;;;16.92;100.00
19797;BME280;10058;57.654;12.044;2023-09-19T08:29:52;99113.31;;;16.90;100.00
19797;BME280;10058;57.654;12.044;2023-09-19T08:32:17;99116.75;;;16.95;100.00
19797;BME280;10058;57.654;12.044;2023-09-19T08:34:45;99141.31;;;17.09;100.00
19797;BME280;10058;57.654;12.044;2023-09-19T08:37:10;99128.94;;;17.39;100.00
19797;BME280;10058;57.654;12.044;2023-09-19T08:39:35;99118.53;;;17.30;100.00
19797;BME280;10058;57.654;12.044;2023-09-19T08:42:02;99136.53;;;17.22;100.00
19797;BME280;10058;57.654;12.044;2023-09-19T08:44:29;99148.81;;;17.63;100.00
19797;BME280;10058;57.654;12.044;2023-09-19T08:47:37;99113.00;;;17.36;100.00
19797;BME280;10058;57.654;12.044;2023-09-19T08:50:19;99126.97;;;17.13;100.00
19797;BME280;10058;57.654;12.044;2023-09-19T08:52:46;99141.69;;;16.94;100.00
19797;BME280;10058;57.654;12.044;2023-09-19T08:55:13;99145.59;;;16.79;100.00
19797;BME280;10058;57.654;12.044;2023-09-19T08:57:46;99153.03;;;16.63;100.00
19797;BME280;10058;57.654;12.044;2023-09-19T09:00:14;99166.53;;;16.56;100.00
19797;BME280;10058;57.654;12.044;2023-09-19T09:02:42;99175.03;;;16.33;100.00
19797;BME280;10058;57.654;12.044;2023-09-19T09:05:09;99165.41;;;16.26;100.00
19797;BME280;10058;57.654;12.044;2023-09-19T09:07:36;99152.59;;;16.01;100.00
19797;BME280;10058;57.654;12.044;2023-09-19T09:10:05;99164.13;;;16.02;100.00
19797;BME280;10058;57.654;12.044;2023-09-19T09:12:31;99175.91;;;15.90;100.00
19797;BME280;10058;57.654;12.044;2023-09-19T09:14:56;99184.47;;;16.08;100.00
19797;BME280;10058;57.654;12.044;2023-09-19T09:17:25;99172.09;;;16.04;100.00
19797;BME280;10058;57.654;12.044;2023-09-19T09:19:53;99177.38;;;16.07;100.00
19797;BME280;10058;57.654;12.044;2023-09-19T09:22:19;99179.13;;;16.08;100.00
19797;BME280;10058;57.654;12.044;2023-09-19T09:24:56;99158.84;;;15.99;100.00
19797;BME280;10058;57.654;12.044;2023-09-19T09:27:30;99153.50;;;16.42;100.00
19797;BME280;10058;57.654;12.044;2023-09-19T09:29:56;99135.22;;;16.65;100.00
19797;BME280;10058;57.654;12.044;2023-09-19T09:32:26;99122.78;;;16.64;100.00
19797;BME280;10058;57.654;12.044;2023-09-19T09:34:56;99103.97;;;16.72;100.00
19797;BME280;10058;57.654;12.044;2023-09-19T09:37:22;99120.41;;;16.51;100.00
19797;BME280;10058;57.654;12.044;2023-09-19T09:42:29;99078.50;;;16.57;100.00
19797;BME280;10058;57.654;12.044;2023-09-19T09:45:21;99097.16;;;16.57;100.00
19797;BME280;10058;57.654;12.044;2023-09-19T09:47:58;99101.59;;;16.58;100.00
19797;BME280;10058;57.654;12.044;2023-09-19T09:50:31;99108.59;;;16.24;100.00
19797;BME280;10058;57.654;12.044;2023-09-19T09:53:29;99114.53;;;15.95;100.00
19797;BME280;10058;57.654;12.044;2023-09-19T09:58:22;99130.66;;;15.89;100.00
19797;BME280;10058;57.654;12.044;2023-09-19T10:00:56;99144.94;;;15.85;100.00
19797;BME280;10058;57.654;12.044;2023-09-19T10:03:32;99155.13;;;15.61;100.00
19797;BME280;10058;57.654;12.044;2023-09-19T10:05:59;99176.56;;;15.54;100.00
19797;BME280;10058;57.654;12.044;2023-09-19T10:08:27;99187.22;;;15.54;100.00
19797;BME280;10058;57.654;12.044;2023-09-19T10:10:56;99201.28;;;15.62;100.00
19797;BME280;10058;57.654;12.044;2023-09-19T10:13:30;99197.66;;;16.12;100.00
19797;BME280;10058;57.654;12.044;2023-09-19T10:15:58;99181.25;;;16.33;100.00
19797;BME280;10058;57.654;12.044;2023-09-19T10:18:25;99134.00;;;15.98;100.00
19797;BME280;10058;57.654;12.044;2023-09-19T10:20:53;99160.84;;;16.31;100.00
19797;BME280;10058;57.654;12.044;2023-09-19T10:23:21;99189.03;;;16.44;100.00
19797;BME280;10058;57.654;12.044;2023-09-19T10:25:51;99172.50;;;16.27;100.00
19797;BME280;10058;57.654;12.044;2023-09-19T10:28:18;99182.31;;;16.66;100.00
19797;BME280;10058;57.654;12.044;2023-09-19T10:30:48;99188.09;;;16.87;100.00
19797;BME280;10058;57.654;12.044;2023-09-19T10:33:17;99119.38;;;16.18;100.00
19797;BME280;10058;57.654;12.044;2023-09-19T10:35:45;99179.91;;;16.54;100.00
19797;BME280;10058;57.654;12.044;2023-09-19T10:38:12;99176.94;;;16.69;100.00
19797;BME280;10058;57.654;12.044;2023-09-19T10:40:39;99176.34;;;16.54;100.00
19797;BME280;10058;57.654;12.044;2023-09-19T10:43:13;99168.19;;;16.61;100.00
19797;BME280;10058;57.654;12.044;2023-09-19T10:45:41;99157.75;;;16.91;100.00
19797;BME280;10058;57.654;12.044;2023-09-19T10:48:06;99164.63;;;17.01;100.00
19797;BME280;10058;57.654;12.044;2023-09-19T10:50:43;99152.63;;;16.82;100.00
19797;BME280;10058;57.654;12.044;2023-09-19T10:53:11;99176.56;;;16.85;100.00
19797;BME280;10058;57.654;12.044;2023-09-19T10:55:37;99169.00;;;16.66;100.00
19797;BME280;10058;57.654;12.044;2023-09-19T10:58:05;99143.75;;;16.41;100.00
19797;BME280;10058;57.654;12.044;2023-09-19T11:00:59;99159.25;;;16.24;100.00
19797;BME280;10058;57.654;12.044;2023-09-19T11:03:33;99170.03;;;16.18;100.00
19797;BME280;10058;57.654;12.044;2023-09-19T11:06:20;99148.09;;;16.04;100.00
19797;BME280;10058;57.654;12.044;2023-09-19T11:09:03;99181.06;;;15.99;100.00
19797;BME280;10058;57.654;12.044;2023-09-19T11:11:45;99198.53;;;16.13;100.00
19797;BME280;10058;57.654;12.044;2023-09-19T11:30:46;99152.13;;;17.03;100.00
19797;BME280;10058;57.654;12.044;2023-09-19T11:41:38;99166.91;;;17.52;100.00
19797;BME280;10058;57.654;12.044;2023-09-19T11:49:16;99177.47;;;17.21;100.00
19797;BME280;10058;57.654;12.044;2023-09-19T11:51:46;99168.25;;;17.34;100.00
19797;BME280;10058;57.654;12.044;2023-09-19T11:54:13;99174.84;;;17.55;100.00
19797;BME280;10058;57.654;12.044;2023-09-19T11:56:56;99174.72;;;17.25;100.00
19797;BME280;10058;57.654;12.044;2023-09-19T12:01:58;99185.31;;;17.28;100.00
19797;BME280;10058;57.654;12.044;2023-09-19T12:04:39;99189.59;;;17.34;100.00
19797;BME280;10058;57.654;12.044;2023-09-19T12:07:11;99177.69;;;17.13;100.00
19797;BME280;10058;57.654;12.044;2023-09-19T12:09:47;99185.25;;;17.31;100.00
19797;BME280;10058;57.654;12.044;2023-09-19T12:12:23;99184.97;;;17.07;100.00
19797;BME280;10058;57.654;12.044;2023-09-19T12:14:53;99188.84;;;17.30;100.00
19797;BME280;10058;57.654;12.044;2023-09-19T12:17:18;99203.31;;;17.20;100.00
19797;BME280;10058;57.654;12.044;2023-09-19T12:19:55;99202.50;;;17.17;100.00
19797;BME280;10058;57.654;12.044;2023-09-19T12:22:20;99185.16;;;17.34;100.00
19797;BME280;10058;57.654;12.044;2023-09-19T12:24:46;99180.88;;;17.63;100.00
19797;BME280;10058;57.654;12.044;2023-09-19T12:27:12;99195.44;;;17.50;100.00
19797;BME280;10058;57.654;12.044;2023-09-19T12:29:48;99196.38;;;17.13;100.00
19797;BME280;10058;57.654;12.044;2023-09-19T12:32:36;99173.25;;;16.75;100.00
19797;BME280;10058;57.654;12.044;2023-09-19T12:35:08;99199.97;;;17.12;100.00
19797;BME280;10058;57.654;12.044;2023-09-19T12:37:44;99217.81;;;17.10;100.00
19797;BME280;10058;57.654;12.044;2023-09-19T12:40:13;99211.00;;;16.97;100.00
19797;BME280;10058;57.654;12.044;2023-09-19T12:42:48;99217.00;;;16.66;100.00
19797;BME280;10058;57.654;12.044;2023-09-19T12:45:15;99214.63;;;16.94;100.00
19797;BME280;10058;57.654;12.044;2023-09-19T12:51:05;99230.50;;;16.99;100.00
19797;BME280;10058;57.654;12.044;2023-09-19T12:53:32;99212.53;;;17.07;100.00
19797;BME280;10058;57.654;12.044;2023-09-19T12:55:59;99199.03;;;17.13;100.00
19797;BME280;10058;57.654;12.044;2023-09-19T12:58:25;99186.72;;;17.08;100.00
19797;BME280;10058;57.654;12.044;2023-09-19T13:00:51;99195.59;;;17.08;100.00
19797;BME280;10058;57.654;12.044;2023-09-19T13:06:02;99205.38;;;17.09;100.00
19797;BME280;10058;57.654;12.044;2023-09-19T13:08:39;99159.97;;;17.09;100.00
19797;BME280;10058;57.654;12.044;2023-09-19T13:11:11;99175.75;;;17.18;100.00
19797;BME280;10058;57.654;12.044;2023-09-19T13:16:10;99182.13;;;17.14;100.00
19797;BME280;10058;57.654;12.044;2023-09-19T13:18:49;99174.94;;;17.15;100.00
19797;BME280;10058;57.654;12.044;2023-09-19T13:21:27;99150.16;;;17.11;100.00
19797;BME280;10058;57.654;12.044;2023-09-19T13:23:54;99141.13;;;17.15;100.00
19797;BME280;10058;57.654;12.044;2023-09-19T13:26:27;99191.69;;;17.57;100.00
19797;BME280;10058;57.654;12.044;2023-09-19T13:28:54;99183.97;;;17.46;100.00
19797;BME280;10058;57.654;12.044;2023-09-19T13:31:19;99185.63;;;17.50;100.00
19797;BME280;10058;57.654;12.044;2023-09-19T13:33:45;99190.47;;;17.34;100.00
19797;BME280;10058;57.654;12.044;2023-09-19T13:36:11;99173.47;;;17.38;100.00
19797;BME280;10058;57.654;12.044;2023-09-19T13:38:38;99178.53;;;17.49;100.00
19797;BME280;10058;57.654;12.044;2023-09-19T13:41:03;99177.06;;;17.73;100.00
19797;BME280;10058;57.654;12.044;2023-09-19T13:43:29;99171.66;;;17.40;100.00
19797;BME280;10058;57.654;12.044;2023-09-19T13:45:54;99161.94;;;17.36;100.00
19797;BME280;10058;57.654;12.044;2023-09-19T13:48:20;99170.63;;;17.46;100.00